Hlavní strana
METAR-TAF:

METAR-TAF

Letiště :

Corinth, Mississippi, Spojené státy americké

zeměpisná šířka: 34-54-54N, zeměpisná délka: 088-36-13W, výška: 130 m

Aktuální stav počasí

Zpráva byla vytvořena před 29 minutami, v 07:35 UTC
Jihojihozápadní vítr 7 kt
Teplota 19°C
Vlhkost vzduchu 88%
Tlak 1012 hPa
Viditelnost: 16.1 km
Polojasno ve výšce 1800 ft
Oblačno až skoro zataženo ve výšce 4400 ft
Zataženo ve výšce 9000 ft

METAR: KCRX 290735Z AUTO 20007KT 10SM SCT018 BKN044 OVC090 19/17 A2987 RMK AO2 LTG DSNT E-S

Čas: 03:04 (08:04 UTC)


TAF: chybějící

Stav a předpovědi počasí z více než 4 000 letišť (zprávy METAR a TAF).

Červené a žluté tečky na mapě představují dostupné meteorologické stanice.

Když kurzor umístíte na tečku, zobrazí se název stanice.

Pak kliknutím zobrazíte stav a předpověď počasí.

Chcete-li změnit mapu, kliknutím na zelené tlačítko se znaménkem +mapu přiblížíte, kliknutím na zelené tlačítko se znaménkem – mapu oddálíte a kliknutím na zelené šipky přejdete na sousední mapy.


METAR-TAF: